Time;durP1;ratioP1;P1;durP2;ratioP2;P2;SDS_P1;SDS_P2;PMS_P1;PMS_P2;Temp;Humidity;BMP_temperature;BMP_pressure;BME280_temperature;BME280_humidity;BME280_pressure;Samples;Min_cycle;Max_cycle;Signal;HPM_P1;HPM_P2
2021/04/06 00:00:33;;;;;;;3.900001;2.6;;;;;;;-0.69;64.63672;94781.08;;;;
2021/04/06 00:01:40;;;;;;;3.900001;2.6;;;;;;;-0.69;64.63672;94781.08;;;;
2021/04/06 00:02:42;;;;;;;3.900001;2.6;;;;;;;-0.69;64.63672;94781.08;;;;
2021/04/06 00:03:47;;;;;;;3.900001;2.6;;;;;;;-0.69;64.63672;94781.08;;;;
2021/04/06 00:04:50;;;;;;;3.900001;2.6;;;;;;;-0.69;64.63672;94781.08;;;;
2021/04/06 00:05:53;;;;;;;3.900001;2.6;;;;;;;-0.69;64.63672;94781.08;;;;
2021/04/06 00:07:00;;;;;;;3.900001;2.6;;;;;;;-0.69;64.63672;94781.08;;;;
2021/04/06 00:08:04;;;;;;;3.900001;2.6;;;;;;;-0.69;64.63672;94781.08;;;;
2021/04/06 00:09:06;;;;;;;3.900001;2.6;;;;;;;-0.69;64.63672;94781.08;;;;
2021/04/06 00:10:11;;;;;;;3.900001;2.6;;;;;;;-0.69;64.63672;94781.08;;;;
2021/04/06 00:11:18;;;;;;;5.6;2.5;;;;;;;-0.75;64.79395;94754.88;;;;
2021/04/06 00:12:19;;;;;;;5.6;2.5;;;;;;;-0.75;64.79395;94754.88;;;;
2021/04/06 00:13:21;;;;;;;5.6;2.5;;;;;;;-0.75;64.79395;94754.88;;;;
2021/04/06 00:14:25;;;;;;;5.6;2.5;;;;;;;-0.75;64.79395;94754.88;;;;
2021/04/06 00:15:28;;;;;;;5.6;2.5;;;;;;;-0.75;64.79395;94754.88;;;;
2021/04/06 00:16:30;;;;;;;5.6;2.5;;;;;;;-0.75;64.79395;94754.88;;;;
2021/04/06 00:17:32;;;;;;;5.6;2.5;;;;;;;-0.75;64.79395;94754.88;;;;
2021/04/06 00:18:35;;;;;;;5.6;2.5;;;;;;;-0.75;64.79395;94754.88;;;;
2021/04/06 00:19:36;;;;;;;5.6;2.5;;;;;;;-0.75;64.79395;94754.88;;;;
2021/04/06 00:20:41;;;;;;;5.6;2.5;;;;;;;-0.75;64.79395;94754.88;;;;
2021/04/06 00:21:44;;;;;;;5.05;2.55;;;;;;;-0.92;64.88379;94754.61;;;;
2021/04/06 00:22:47;;;;;;;5.05;2.55;;;;;;;-0.92;64.88379;94754.61;;;;
2021/04/06 00:23:49;;;;;;;5.05;2.55;;;;;;;-0.92;64.88379;94754.61;;;;
2021/04/06 00:24:51;;;;;;;5.05;2.55;;;;;;;-0.92;64.88379;94754.61;;;;
2021/04/06 00:25:53;;;;;;;5.05;2.55;;;;;;;-0.92;64.88379;94754.61;;;;
2021/04/06 00:26:56;;;;;;;5.05;2.55;;;;;;;-0.92;64.88379;94754.61;;;;
2021/04/06 00:28:07;;;;;;;5.05;2.55;;;;;;;-0.92;64.88379;94754.61;;;;
2021/04/06 00:29:12;;;;;;;5.05;2.55;;;;;;;-0.92;64.88379;94754.61;;;;
2021/04/06 00:30:16;;;;;;;5.05;2.55;;;;;;;-0.92;64.88379;94754.61;;;;
2021/04/06 00:31:23;;;;;;;5.05;2.55;;;;;;;-0.92;64.88379;94754.61;;;;
2021/04/06 00:32:24;;;;;;;4;2.55;;;;;;;-1.04;65.15723;94736.18;;;;
2021/04/06 00:33:27;;;;;;;4;2.55;;;;;;;-1.04;65.15723;94736.18;;;;
2021/04/06 00:34:30;;;;;;;4;2.55;;;;;;;-1.04;65.15723;94736.18;;;;
2021/04/06 00:35:32;;;;;;;4;2.55;;;;;;;-1.04;65.15723;94736.18;;;;
2021/04/06 00:36:36;;;;;;;4;2.55;;;;;;;-1.04;65.15723;94736.18;;;;
2021/04/06 00:37:38;;;;;;;4;2.55;;;;;;;-1.04;65.15723;94736.18;;;;
2021/04/06 00:38:45;;;;;;;4;2.55;;;;;;;-1.04;65.15723;94736.18;;;;
2021/04/06 00:39:46;;;;;;;4;2.55;;;;;;;-1.04;65.15723;94736.18;;;;
2021/04/06 00:40:56;;;;;;;4;2.55;;;;;;;-1.04;65.15723;94736.18;;;;
2021/04/06 00:42:01;;;;;;;4;2.55;;;;;;;-1.04;65.15723;94736.18;;;;
2021/04/06 00:43:05;;;;;;;5.400001;2.4;;;;;;;-1.07;65.2041;94731.74;;;;
2021/04/06 00:44:06;;;;;;;5.400001;2.4;;;;;;;-1.07;65.2041;94731.74;;;;
2021/04/06 00:45:13;;;;;;;5.400001;2.4;;;;;;;-1.07;65.2041;94731.74;;;;
2021/04/06 00:46:17;;;;;;;5.400001;2.4;;;;;;;-1.07;65.2041;94731.74;;;;
2021/04/06 00:47:21;;;;;;;5.400001;2.4;;;;;;;-1.07;65.2041;94731.74;;;;
2021/04/06 00:48:24;;;;;;;5.400001;2.4;;;;;;;-1.07;65.2041;94731.74;;;;
2021/04/06 00:49:24;;;;;;;5.400001;2.4;;;;;;;-1.07;65.2041;94731.74;;;;
2021/04/06 00:50:28;;;;;;;5.400001;2.4;;;;;;;-1.07;65.2041;94731.74;;;;
2021/04/06 00:51:31;;;;;;;5.400001;2.4;;;;;;;-1.07;65.2041;94731.74;;;;
2021/04/06 00:52:37;;;;;;;5.400001;2.4;;;;;;;-1.07;65.2041;94731.74;;;;
2021/04/06 00:53:41;;;;;;;4;2.2;;;;;;;-1.15;65.25488;94735.28;;;;
2021/04/06 00:54:58;;;;;;;4;2.2;;;;;;;-1.15;65.25488;94735.28;;;;
2021/04/06 00:56:00;;;;;;;4;2.2;;;;;;;-1.15;65.25488;94735.28;;;;
2021/04/06 00:57:12;;;;;;;4;2.2;;;;;;;-1.15;65.25488;94735.28;;;;
2021/04/06 00:58:13;;;;;;;4;2.2;;;;;;;-1.15;65.25488;94735.28;;;;
2021/04/06 00:59:19;;;;;;;4;2.2;;;;;;;-1.15;65.25488;94735.28;;;;
2021/04/06 01:00:19;;;;;;;4;2.2;;;;;;;-1.15;65.25488;94735.28;;;;
2021/04/06 01:01:24;;;;;;;4;2.2;;;;;;;-1.15;65.25488;94735.28;;;;
2021/04/06 01:02:35;;;;;;;4;2.2;;;;;;;-1.15;65.25488;94735.28;;;;
2021/04/06 01:03:35;;;;;;;4;2.2;;;;;;;-1.15;65.25488;94735.28;;;;
2021/04/06 01:04:40;;;;;;;3.25;2.4;;;;;;;-1.26;65.0918;94741.52;;;;
2021/04/06 01:05:41;;;;;;;3.25;2.4;;;;;;;-1.26;65.0918;94741.52;;;;
2021/04/06 01:07:07;;;;;;;3.25;2.4;;;;;;;-1.26;65.0918;94741.52;;;;
2021/04/06 01:08:10;;;;;;;3.25;2.4;;;;;;;-1.26;65.0918;94741.52;;;;
2021/04/06 01:09:10;;;;;;;3.25;2.4;;;;;;;-1.26;65.0918;94741.52;;;;
2021/04/06 01:10:11;;;;;;;3.25;2.4;;;;;;;-1.26;65.0918;94741.52;;;;
2021/04/06 01:11:13;;;;;;;3.25;2.4;;;;;;;-1.26;65.0918;94741.52;;;;
2021/04/06 01:12:14;;;;;;;3.25;2.4;;;;;;;-1.26;65.0918;94741.52;;;;
2021/04/06 01:13:17;;;;;;;3.25;2.4;;;;;;;-1.26;65.0918;94741.52;;;;
2021/04/06 01:14:18;;;;;;;3.25;2.4;;;;;;;-1.26;65.0918;94741.52;;;;
2021/04/06 01:15:19;;;;;;;5.099999;2.5;;;;;;;-1.33;65.55078;94741.8;;;;
2021/04/06 01:16:21;;;;;;;5.099999;2.5;;;;;;;-1.33;65.55078;94741.8;;;;
2021/04/06 01:17:23;;;;;;;5.099999;2.5;;;;;;;-1.33;65.55078;94741.8;;;;
2021/04/06 01:18:27;;;;;;;5.099999;2.5;;;;;;;-1.33;65.55078;94741.8;;;;
2021/04/06 01:19:27;;;;;;;5.099999;2.5;;;;;;;-1.33;65.55078;94741.8;;;;
2021/04/06 01:20:30;;;;;;;5.099999;2.5;;;;;;;-1.33;65.55078;94741.8;;;;
2021/04/06 01:21:30;;;;;;;5.099999;2.5;;;;;;;-1.33;65.55078;94741.8;;;;
2021/04/06 01:22:31;;;;;;;5.099999;2.5;;;;;;;-1.33;65.55078;94741.8;;;;
2021/04/06 01:23:31;;;;;;;5.099999;2.5;;;;;;;-1.33;65.55078;94741.8;;;;
2021/04/06 01:24:34;;;;;;;5.099999;2.5;;;;;;;-1.33;65.55078;94741.8;;;;
2021/04/06 01:25:36;;;;;;;3.45;2.55;;;;;;;-1.34;65.56055;94740.16;;;;
2021/04/06 01:26:42;;;;;;;3.45;2.55;;;;;;;-1.34;65.56055;94740.16;;;;
2021/04/06 01:27:43;;;;;;;3.45;2.55;;;;;;;-1.34;65.56055;94740.16;;;;
2021/04/06 01:28:44;;;;;;;3.45;2.55;;;;;;;-1.34;65.56055;94740.16;;;;
2021/04/06 01:29:44;;;;;;;3.45;2.55;;;;;;;-1.34;65.56055;94740.16;;;;
2021/04/06 01:30:49;;;;;;;3.45;2.55;;;;;;;-1.34;65.56055;94740.16;;;;
2021/04/06 01:31:50;;;;;;;3.45;2.55;;;;;;;-1.34;65.56055;94740.16;;;;
2021/04/06 01:32:52;;;;;;;3.45;2.55;;;;;;;-1.34;65.56055;94740.16;;;;
2021/04/06 01:33:53;;;;;;;3.45;2.55;;;;;;;-1.34;65.56055;94740.16;;;;
2021/04/06 01:34:54;;;;;;;3.45;2.55;;;;;;;-1.34;65.56055;94740.16;;;;
2021/04/06 01:35:55;;;;;;;6.049999;2.6;;;;;;;-1.35;65.36914;94731.98;;;;
2021/04/06 01:36:58;;;;;;;6.049999;2.6;;;;;;;-1.35;65.36914;94731.98;;;;
2021/04/06 01:37:59;;;;;;;6.049999;2.6;;;;;;;-1.35;65.36914;94731.98;;;;
2021/04/06 01:39:00;;;;;;;6.049999;2.6;;;;;;;-1.35;65.36914;94731.98;;;;
2021/04/06 01:40:03;;;;;;;6.049999;2.6;;;;;;;-1.35;65.36914;94731.98;;;;
2021/04/06 01:41:04;;;;;;;6.049999;2.6;;;;;;;-1.35;65.36914;94731.98;;;;
2021/04/06 01:42:07;;;;;;;6.049999;2.6;;;;;;;-1.35;65.36914;94731.98;;;;
2021/04/06 01:43:08;;;;;;;6.049999;2.6;;;;;;;-1.35;65.36914;94731.98;;;;
2021/04/06 01:44:10;;;;;;;6.049999;2.6;;;;;;;-1.35;65.36914;94731.98;;;;
2021/04/06 01:45:11;;;;;;;6.049999;2.6;;;;;;;-1.35;65.36914;94731.98;;;;
2021/04/06 01:46:17;;;;;;;6.049999;2.6;;;;;;;-1.35;65.36914;94731.98;;;;
2021/04/06 01:47:20;;;;;;;4.7;2.45;;;;;;;-1.46;65.54102;94733.23;;;;
2021/04/06 01:48:21;;;;;;;4.7;2.45;;;;;;;-1.46;65.54102;94733.23;;;;
2021/04/06 01:49:22;;;;;;;4.7;2.45;;;;;;;-1.46;65.54102;94733.23;;;;
2021/04/06 01:50:23;;;;;;;4.7;2.45;;;;;;;-1.46;65.54102;94733.23;;;;
2021/04/06 01:51:24;;;;;;;4.7;2.45;;;;;;;-1.46;65.54102;94733.23;;;;
2021/04/06 01:52:25;;;;;;;4.7;2.45;;;;;;;-1.46;65.54102;94733.23;;;;
2021/04/06 01:53:26;;;;;;;4.7;2.45;;;;;;;-1.46;65.54102;94733.23;;;;
2021/04/06 01:54:27;;;;;;;4.7;2.45;;;;;;;-1.46;65.54102;94733.23;;;;
2021/04/06 01:55:27;;;;;;;4.7;2.45;;;;;;;-1.46;65.54102;94733.23;;;;
2021/04/06 01:56:33;;;;;;;4.7;2.45;;;;;;;-1.46;65.54102;94733.23;;;;
2021/04/06 01:57:40;;;;;;;5.299999;2.9;;;;;;;-1.61;65.45703;94717.28;;;;
2021/04/06 01:58:43;;;;;;;5.299999;2.9;;;;;;;-1.61;65.45703;94717.28;;;;
2021/04/06 01:59:49;;;;;;;5.299999;2.9;;;;;;;-1.61;65.45703;94717.28;;;;
2021/04/06 02:00:58;;;;;;;5.299999;2.9;;;;;;;-1.61;65.45703;94717.28;;;;
2021/04/06 02:02:01;;;;;;;5.299999;2.9;;;;;;;-1.61;65.45703;94717.28;;;;
2021/04/06 02:03:07;;;;;;;5.299999;2.9;;;;;;;-1.61;65.45703;94717.28;;;;
2021/04/06 02:04:10;;;;;;;5.299999;2.9;;;;;;;-1.61;65.45703;94717.28;;;;
2021/04/06 02:05:11;;;;;;;5.299999;2.9;;;;;;;-1.61;65.45703;94717.28;;;;
2021/04/06 02:06:13;;;;;;;5.299999;2.9;;;;;;;-1.61;65.45703;94717.28;;;;
2021/04/06 02:07:16;;;;;;;5.299999;2.9;;;;;;;-1.61;65.45703;94717.28;;;;
2021/04/06 02:08:18;;;;;;;3.75;2.75;;;;;;;-1.92;65.79395;94711.19;;;;
2021/04/06 02:09:20;;;;;;;3.75;2.75;;;;;;;-1.92;65.79395;94711.19;;;;
2021/04/06 02:10:21;;;;;;;3.75;2.75;;;;;;;-1.92;65.79395;94711.19;;;;
2021/04/06 02:11:22;;;;;;;3.75;2.75;;;;;;;-1.92;65.79395;94711.19;;;;
2021/04/06 02:12:25;;;;;;;3.75;2.75;;;;;;;-1.92;65.79395;94711.19;;;;
2021/04/06 02:13:25;;;;;;;3.75;2.75;;;;;;;-1.92;65.79395;94711.19;;;;
2021/04/06 02:14:26;;;;;;;3.75;2.75;;;;;;;-1.92;65.79395;94711.19;;;;
2021/04/06 02:15:29;;;;;;;3.75;2.75;;;;;;;-1.92;65.79395;94711.19;;;;
2021/04/06 02:16:29;;;;;;;3.75;2.75;;;;;;;-1.92;65.79395;94711.19;;;;
2021/04/06 02:17:41;;;;;;;3.75;2.75;;;;;;;-1.92;65.79395;94711.19;;;;
2021/04/06 02:18:47;;;;;;;4.75;2.35;;;;;;;-2.16;65.91113;94726.37;;;;
2021/04/06 02:19:51;;;;;;;4.75;2.35;;;;;;;-2.16;65.91113;94726.37;;;;
2021/04/06 02:20:52;;;;;;;4.75;2.35;;;;;;;-2.16;65.91113;94726.37;;;;
2021/04/06 02:21:54;;;;;;;4.75;2.35;;;;;;;-2.16;65.91113;94726.37;;;;
2021/04/06 02:22:58;;;;;;;4.75;2.35;;;;;;;-2.16;65.91113;94726.37;;;;
2021/04/06 02:24:00;;;;;;;4.75;2.35;;;;;;;-2.16;65.91113;94726.37;;;;
2021/04/06 02:25:01;;;;;;;4.75;2.35;;;;;;;-2.16;65.91113;94726.37;;;;
2021/04/06 02:26:04;;;;;;;4.75;2.35;;;;;;;-2.16;65.91113;94726.37;;;;
2021/04/06 02:27:05;;;;;;;4.75;2.35;;;;;;;-2.16;65.91113;94726.37;;;;
2021/04/06 02:28:09;;;;;;;4.75;2.35;;;;;;;-2.16;65.91113;94726.37;;;;
2021/04/06 02:29:13;;;;;;;4.9;2.95;;;;;;;-2.28;65.94531;94709.16;;;;
2021/04/06 02:30:14;;;;;;;4.9;2.95;;;;;;;-2.28;65.94531;94709.16;;;;
2021/04/06 02:31:15;;;;;;;4.9;2.95;;;;;;;-2.28;65.94531;94709.16;;;;
2021/04/06 02:32:16;;;;;;;4.9;2.95;;;;;;;-2.28;65.94531;94709.16;;;;
2021/04/06 02:33:18;;;;;;;4.9;2.95;;;;;;;-2.28;65.94531;94709.16;;;;
2021/04/06 02:34:24;;;;;;;4.9;2.95;;;;;;;-2.28;65.94531;94709.16;;;;
2021/04/06 02:35:43;;;;;;;4.9;2.95;;;;;;;-2.28;65.94531;94709.16;;;;
2021/04/06 02:36:53;;;;;;;4.9;2.95;;;;;;;-2.28;65.94531;94709.16;;;;
2021/04/06 02:37:54;;;;;;;4.9;2.95;;;;;;;-2.28;65.94531;94709.16;;;;
2021/04/06 02:38:54;;;;;;;4.9;2.95;;;;;;;-2.28;65.94531;94709.16;;;;
2021/04/06 02:39:55;;;;;;;5.45;3.05;;;;;;;-2.4;66.42676;94700.87;;;;
2021/04/06 02:40:58;;;;;;;5.45;3.05;;;;;;;-2.4;66.42676;94700.87;;;;
2021/04/06 02:42:04;;;;;;;5.45;3.05;;;;;;;-2.4;66.42676;94700.87;;;;
2021/04/06 02:43:23;;;;;;;5.45;3.05;;;;;;;-2.4;66.42676;94700.87;;;;
2021/04/06 02:44:24;;;;;;;5.45;3.05;;;;;;;-2.4;66.42676;94700.87;;;;
2021/04/06 02:45:26;;;;;;;5.45;3.05;;;;;;;-2.4;66.42676;94700.87;;;;
2021/04/06 02:46:28;;;;;;;5.45;3.05;;;;;;;-2.4;66.42676;94700.87;;;;
2021/04/06 02:47:29;;;;;;;5.45;3.05;;;;;;;-2.4;66.42676;94700.87;;;;
2021/04/06 02:48:31;;;;;;;5.45;3.05;;;;;;;-2.4;66.42676;94700.87;;;;
2021/04/06 02:49:33;;;;;;;5.45;3.05;;;;;;;-2.4;66.42676;94700.87;;;;
2021/04/06 02:50:34;;;;;;;4.8;3.2;;;;;;;-2.49;66.47363;94697.11;;;;
2021/04/06 02:51:36;;;;;;;4.8;3.2;;;;;;;-2.49;66.47363;94697.11;;;;
2021/04/06 02:52:39;;;;;;;4.8;3.2;;;;;;;-2.49;66.47363;94697.11;;;;
2021/04/06 02:53:40;;;;;;;4.8;3.2;;;;;;;-2.49;66.47363;94697.11;;;;
2021/04/06 02:54:41;;;;;;;4.8;3.2;;;;;;;-2.49;66.47363;94697.11;;;;
2021/04/06 02:55:42;;;;;;;4.8;3.2;;;;;;;-2.49;66.47363;94697.11;;;;
2021/04/06 02:56:43;;;;;;;4.8;3.2;;;;;;;-2.49;66.47363;94697.11;;;;
2021/04/06 02:57:43;;;;;;;4.8;3.2;;;;;;;-2.49;66.47363;94697.11;;;;
2021/04/06 02:58:46;;;;;;;4.8;3.2;;;;;;;-2.49;66.47363;94697.11;;;;
2021/04/06 02:59:46;;;;;;;4.8;3.2;;;;;;;-2.49;66.47363;94697.11;;;;
2021/04/06 03:00:47;;;;;;;4.8;3.2;;;;;;;-2.49;66.47363;94697.11;;;;
2021/04/06 03:01:47;;;;;;;5.350001;3.5;;;;;;;-2.52;66.74023;94695.64;;;;
2021/04/06 03:02:49;;;;;;;5.350001;3.5;;;;;;;-2.52;66.74023;94695.64;;;;
2021/04/06 03:03:50;;;;;;;5.350001;3.5;;;;;;;-2.52;66.74023;94695.64;;;;
2021/04/06 03:04:51;;;;;;;5.350001;3.5;;;;;;;-2.52;66.74023;94695.64;;;;
2021/04/06 03:05:51;;;;;;;5.350001;3.5;;;;;;;-2.52;66.74023;94695.64;;;;
2021/04/06 03:07:01;;;;;;;5.350001;3.5;;;;;;;-2.52;66.74023;94695.64;;;;
2021/04/06 03:08:01;;;;;;;5.350001;3.5;;;;;;;-2.52;66.74023;94695.64;;;;
2021/04/06 03:09:03;;;;;;;5.350001;3.5;;;;;;;-2.52;66.74023;94695.64;;;;
2021/04/06 03:10:04;;;;;;;5.350001;3.5;;;;;;;-2.52;66.74023;94695.64;;;;
2021/04/06 03:11:05;;;;;;;5.350001;3.5;;;;;;;-2.52;66.74023;94695.64;;;;
2021/04/06 03:12:09;;;;;;;6.550001;3.2;;;;;;;-2.47;66.85254;94696.86;;;;
2021/04/06 03:13:09;;;;;;;6.550001;3.2;;;;;;;-2.47;66.85254;94696.86;;;;
2021/04/06 03:14:11;;;;;;;6.550001;3.2;;;;;;;-2.47;66.85254;94696.86;;;;
2021/04/06 03:15:12;;;;;;;6.550001;3.2;;;;;;;-2.47;66.85254;94696.86;;;;
2021/04/06 03:16:14;;;;;;;6.550001;3.2;;;;;;;-2.47;66.85254;94696.86;;;;
2021/04/06 03:17:16;;;;;;;6.550001;3.2;;;;;;;-2.47;66.85254;94696.86;;;;
2021/04/06 03:18:17;;;;;;;6.550001;3.2;;;;;;;-2.47;66.85254;94696.86;;;;
2021/04/06 03:19:18;;;;;;;6.550001;3.2;;;;;;;-2.47;66.85254;94696.86;;;;
2021/04/06 03:20:29;;;;;;;6.550001;3.2;;;;;;;-2.47;66.85254;94696.86;;;;
2021/04/06 03:21:29;;;;;;;6.550001;3.2;;;;;;;-2.47;66.85254;94696.86;;;;
2021/04/06 03:22:32;;;;;;;3.2;2.75;;;;;;;-2.25;66.98145;94688.97;;;;
2021/04/06 03:23:32;;;;;;;3.2;2.75;;;;;;;-2.25;66.98145;94688.97;;;;
2021/04/06 03:24:34;;;;;;;3.2;2.75;;;;;;;-2.25;66.98145;94688.97;;;;
2021/04/06 03:25:35;;;;;;;3.2;2.75;;;;;;;-2.25;66.98145;94688.97;;;;
2021/04/06 03:26:37;;;;;;;3.2;2.75;;;;;;;-2.25;66.98145;94688.97;;;;
2021/04/06 03:27:39;;;;;;;3.2;2.75;;;;;;;-2.25;66.98145;94688.97;;;;
2021/04/06 03:28:42;;;;;;;3.2;2.75;;;;;;;-2.25;66.98145;94688.97;;;;
2021/04/06 03:29:45;;;;;;;3.2;2.75;;;;;;;-2.25;66.98145;94688.97;;;;
2021/04/06 03:30:49;;;;;;;3.2;2.75;;;;;;;-2.25;66.98145;94688.97;;;;
2021/04/06 03:32:03;;;;;;;3.2;2.75;;;;;;;-2.25;66.98145;94688.97;;;;
2021/04/06 03:33:05;;;;;;;3.2;2.75;;;;;;;-2.25;66.98145;94688.97;;;;
2021/04/06 03:34:08;;;;;;;5.35;3.1;;;;;;;-2.06;66.78125;94693.92;;;;
2021/04/06 03:35:10;;;;;;;5.35;3.1;;;;;;;-2.06;66.78125;94693.92;;;;
2021/04/06 03:36:11;;;;;;;5.35;3.1;;;;;;;-2.06;66.78125;94693.92;;;;
2021/04/06 03:37:20;;;;;;;5.35;3.1;;;;;;;-2.06;66.78125;94693.92;;;;
2021/04/06 03:38:21;;;;;;;5.35;3.1;;;;;;;-2.06;66.78125;94693.92;;;;
2021/04/06 03:39:22;;;;;;;5.35;3.1;;;;;;;-2.06;66.78125;94693.92;;;;
2021/04/06 03:40:22;;;;;;;5.35;3.1;;;;;;;-2.06;66.78125;94693.92;;;;
2021/04/06 03:41:23;;;;;;;5.35;3.1;;;;;;;-2.06;66.78125;94693.92;;;;
2021/04/06 03:42:26;;;;;;;5.35;3.1;;;;;;;-2.06;66.78125;94693.92;;;;
2021/04/06 03:43:27;;;;;;;5.35;3.1;;;;;;;-2.06;66.78125;94693.92;;;;
2021/04/06 03:44:39;;;;;;;3.95;2.6;;;;;;;-1.96;66.93262;94695.45;;;;
2021/04/06 03:45:39;;;;;;;3.95;2.6;;;;;;;-1.96;66.93262;94695.45;;;;
2021/04/06 03:46:57;;;;;;;3.95;2.6;;;;;;;-1.96;66.93262;94695.45;;;;
2021/04/06 03:47:59;;;;;;;3.95;2.6;;;;;;;-1.96;66.93262;94695.45;;;;
2021/04/06 03:48:59;;;;;;;3.95;2.6;;;;;;;-1.96;66.93262;94695.45;;;;
2021/04/06 03:50:17;;;;;;;3.95;2.6;;;;;;;-1.96;66.93262;94695.45;;;;
2021/04/06 03:51:31;;;;;;;3.95;2.6;;;;;;;-1.96;66.93262;94695.45;;;;
2021/04/06 03:52:31;;;;;;;3.95;2.6;;;;;;;-1.96;66.93262;94695.45;;;;
2021/04/06 03:53:32;;;;;;;3.95;2.6;;;;;;;-1.96;66.93262;94695.45;;;;
2021/04/06 03:54:39;;;;;;;4.75;2.7;;;;;;;-2.14;66.95605;94686.84;;;;
2021/04/06 03:55:42;;;;;;;4.75;2.7;;;;;;;-2.14;66.95605;94686.84;;;;
2021/04/06 03:56:43;;;;;;;4.75;2.7;;;;;;;-2.14;66.95605;94686.84;;;;
2021/04/06 03:57:47;;;;;;;4.75;2.7;;;;;;;-2.14;66.95605;94686.84;;;;
2021/04/06 03:58:54;;;;;;;4.75;2.7;;;;;;;-2.14;66.95605;94686.84;;;;
2021/04/06 03:59:54;;;;;;;4.75;2.7;;;;;;;-2.14;66.95605;94686.84;;;;
2021/04/06 04:00:55;;;;;;;4.75;2.7;;;;;;;-2.14;66.95605;94686.84;;;;
2021/04/06 04:01:56;;;;;;;4.75;2.7;;;;;;;-2.14;66.95605;94686.84;;;;
2021/04/06 04:02:57;;;;;;;4.75;2.7;;;;;;;-2.14;66.95605;94686.84;;;;
2021/04/06 04:03:58;;;;;;;4.75;2.7;;;;;;;-2.14;66.95605;94686.84;;;;
2021/04/06 04:05:00;;;;;;;4.75;2.7;;;;;;;-2.14;66.95605;94686.84;;;;
2021/04/06 04:06:01;;;;;;;4.65;2.4;;;;;;;-2.41;67.49609;94682.03;;;;
2021/04/06 04:07:02;;;;;;;4.65;2.4;;;;;;;-2.41;67.49609;94682.03;;;;
2021/04/06 04:08:02;;;;;;;4.65;2.4;;;;;;;-2.41;67.49609;94682.03;;;;
2021/04/06 04:09:03;;;;;;;4.65;2.4;;;;;;;-2.41;67.49609;94682.03;;;;
2021/04/06 04:10:04;;;;;;;4.65;2.4;;;;;;;-2.41;67.49609;94682.03;;;;
2021/04/06 04:11:07;;;;;;;4.65;2.4;;;;;;;-2.41;67.49609;94682.03;;;;
2021/04/06 04:12:07;;;;;;;4.65;2.4;;;;;;;-2.41;67.49609;94682.03;;;;
2021/04/06 04:13:08;;;;;;;4.65;2.4;;;;;;;-2.41;67.49609;94682.03;;;;
2021/04/06 04:14:08;;;;;;;4.65;2.4;;;;;;;-2.41;67.49609;94682.03;;;;
2021/04/06 04:15:09;;;;;;;4.65;2.4;;;;;;;-2.41;67.49609;94682.03;;;;
2021/04/06 04:16:10;;;;;;;4.200001;2.45;;;;;;;-2.65;67.71777;94678.19;;;;
2021/04/06 04:17:11;;;;;;;4.200001;2.45;;;;;;;-2.65;67.71777;94678.19;;;;
2021/04/06 04:18:11;;;;;;;4.200001;2.45;;;;;;;-2.65;67.71777;94678.19;;;;
2021/04/06 04:19:12;;;;;;;4.200001;2.45;;;;;;;-2.65;67.71777;94678.19;;;;
2021/04/06 04:20:13;;;;;;;4.200001;2.45;;;;;;;-2.65;67.71777;94678.19;;;;
2021/04/06 04:21:15;;;;;;;4.200001;2.45;;;;;;;-2.65;67.71777;94678.19;;;;
2021/04/06 04:22:16;;;;;;;4.200001;2.45;;;;;;;-2.65;67.71777;94678.19;;;;
2021/04/06 04:23:16;;;;;;;4.200001;2.45;;;;;;;-2.65;67.71777;94678.19;;;;
2021/04/06 04:24:17;;;;;;;4.200001;2.45;;;;;;;-2.65;67.71777;94678.19;;;;
2021/04/06 04:25:17;;;;;;;4.200001;2.45;;;;;;;-2.65;67.71777;94678.19;;;;
2021/04/06 04:26:19;;;;;;;4.200001;2.45;;;;;;;-2.65;67.71777;94678.19;;;;
2021/04/06 04:27:20;;;;;;;4.1;2.6;;;;;;;-2.77;67.6377;94673.75;;;;
2021/04/06 04:28:20;;;;;;;4.1;2.6;;;;;;;-2.77;67.6377;94673.75;;;;
2021/04/06 04:29:21;;;;;;;4.1;2.6;;;;;;;-2.77;67.6377;94673.75;;;;
2021/04/06 04:30:35;;;;;;;4.1;2.6;;;;;;;-2.77;67.6377;94673.75;;;;
2021/04/06 04:31:36;;;;;;;4.1;2.6;;;;;;;-2.77;67.6377;94673.75;;;;
2021/04/06 04:32:36;;;;;;;4.1;2.6;;;;;;;-2.77;67.6377;94673.75;;;;
2021/04/06 04:33:37;;;;;;;4.1;2.6;;;;;;;-2.77;67.6377;94673.75;;;;
2021/04/06 04:34:38;;;;;;;4.1;2.6;;;;;;;-2.77;67.6377;94673.75;;;;
2021/04/06 04:35:39;;;;;;;4.1;2.6;;;;;;;-2.77;67.6377;94673.75;;;;
2021/04/06 04:36:40;;;;;;;4.1;2.6;;;;;;;-2.77;67.6377;94673.75;;;;
2021/04/06 04:37:40;;;;;;;4.149999;2.6;;;;;;;-2.93;68.16113;94673.39;;;;
2021/04/06 04:38:41;;;;;;;4.149999;2.6;;;;;;;-2.93;68.16113;94673.39;;;;
2021/04/06 04:39:41;;;;;;;4.149999;2.6;;;;;;;-2.93;68.16113;94673.39;;;;
2021/04/06 04:40:42;;;;;;;4.149999;2.6;;;;;;;-2.93;68.16113;94673.39;;;;
2021/04/06 04:41:43;;;;;;;4.149999;2.6;;;;;;;-2.93;68.16113;94673.39;;;;
2021/04/06 04:42:44;;;;;;;4.149999;2.6;;;;;;;-2.93;68.16113;94673.39;;;;
2021/04/06 04:43:44;;;;;;;4.149999;2.6;;;;;;;-2.93;68.16113;94673.39;;;;
2021/04/06 04:44:45;;;;;;;4.149999;2.6;;;;;;;-2.93;68.16113;94673.39;;;;
2021/04/06 04:45:45;;;;;;;4.149999;2.6;;;;;;;-2.93;68.16113;94673.39;;;;
2021/04/06 04:46:46;;;;;;;4.149999;2.6;;;;;;;-2.93;68.16113;94673.39;;;;
2021/04/06 04:47:47;;;;;;;4.149999;2.6;;;;;;;-2.93;68.16113;94673.39;;;;
2021/04/06 04:48:48;;;;;;;5.65;2.45;;;;;;;-3.05;68.4209;94664.18;;;;
2021/04/06 04:49:48;;;;;;;5.65;2.45;;;;;;;-3.05;68.4209;94664.18;;;;
2021/04/06 04:50:49;;;;;;;5.65;2.45;;;;;;;-3.05;68.4209;94664.18;;;;
2021/04/06 04:51:49;;;;;;;5.65;2.45;;;;;;;-3.05;68.4209;94664.18;;;;
2021/04/06 04:52:50;;;;;;;5.65;2.45;;;;;;;-3.05;68.4209;94664.18;;;;
2021/04/06 04:53:51;;;;;;;5.65;2.45;;;;;;;-3.05;68.4209;94664.18;;;;
2021/04/06 04:54:52;;;;;;;5.65;2.45;;;;;;;-3.05;68.4209;94664.18;;;;
2021/04/06 04:55:52;;;;;;;5.65;2.45;;;;;;;-3.05;68.4209;94664.18;;;;
2021/04/06 04:56:52;;;;;;;5.65;2.45;;;;;;;-3.05;68.4209;94664.18;;;;
2021/04/06 04:57:53;;;;;;;5.65;2.45;;;;;;;-3.05;68.4209;94664.18;;;;
2021/04/06 04:58:55;;;;;;;5.75;2.7;;;;;;;-3.08;68.56348;94661.9;;;;
2021/04/06 04:59:55;;;;;;;5.75;2.7;;;;;;;-3.08;68.56348;94661.9;;;;
2021/04/06 05:00:56;;;;;;;5.75;2.7;;;;;;;-3.08;68.56348;94661.9;;;;
2021/04/06 05:01:56;;;;;;;5.75;2.7;;;;;;;-3.08;68.56348;94661.9;;;;
2021/04/06 05:02:58;;;;;;;5.75;2.7;;;;;;;-3.08;68.56348;94661.9;;;;
2021/04/06 05:03:58;;;;;;;5.75;2.7;;;;;;;-3.08;68.56348;94661.9;;;;
2021/04/06 05:04:59;;;;;;;5.75;2.7;;;;;;;-3.08;68.56348;94661.9;;;;
2021/04/06 05:05:59;;;;;;;5.75;2.7;;;;;;;-3.08;68.56348;94661.9;;;;
2021/04/06 05:07:00;;;;;;;5.75;2.7;;;;;;;-3.08;68.56348;94661.9;;;;
2021/04/06 05:08:00;;;;;;;5.75;2.7;;;;;;;-3.08;68.56348;94661.9;;;;
2021/04/06 05:09:01;;;;;;;5.75;2.7;;;;;;;-3.08;68.56348;94661.9;;;;
2021/04/06 05:10:02;;;;;;;5.5;3.6;;;;;;;-3;69;94685.21;;;;
2021/04/06 05:11:04;;;;;;;5.5;3.6;;;;;;;-3;69;94685.21;;;;
2021/04/06 05:12:04;;;;;;;5.5;3.6;;;;;;;-3;69;94685.21;;;;
2021/04/06 05:13:06;;;;;;;5.5;3.6;;;;;;;-3;69;94685.21;;;;
2021/04/06 05:14:07;;;;;;;5.5;3.6;;;;;;;-3;69;94685.21;;;;
2021/04/06 05:15:07;;;;;;;5.5;3.6;;;;;;;-3;69;94685.21;;;;
2021/04/06 05:16:09;;;;;;;5.5;3.6;;;;;;;-3;69;94685.21;;;;
2021/04/06 05:17:10;;;;;;;5.5;3.6;;;;;;;-3;69;94685.21;;;;
2021/04/06 05:18:10;;;;;;;5.5;3.6;;;;;;;-3;69;94685.21;;;;
2021/04/06 05:19:11;;;;;;;5.5;3.6;;;;;;;-3;69;94685.21;;;;
2021/04/06 05:20:11;;;;;;;4.15;2.55;;;;;;;-2.95;68.625;94681.97;;;;
2021/04/06 05:21:12;;;;;;;4.15;2.55;;;;;;;-2.95;68.625;94681.97;;;;
2021/04/06 05:22:13;;;;;;;4.15;2.55;;;;;;;-2.95;68.625;94681.97;;;;
2021/04/06 05:23:14;;;;;;;4.15;2.55;;;;;;;-2.95;68.625;94681.97;;;;
2021/04/06 05:24:14;;;;;;;4.15;2.55;;;;;;;-2.95;68.625;94681.97;;;;
2021/04/06 05:25:15;;;;;;;4.15;2.55;;;;;;;-2.95;68.625;94681.97;;;;
2021/04/06 05:26:15;;;;;;;4.15;2.55;;;;;;;-2.95;68.625;94681.97;;;;
2021/04/06 05:27:16;;;;;;;4.15;2.55;;;;;;;-2.95;68.625;94681.97;;;;
2021/04/06 05:28:17;;;;;;;4.15;2.55;;;;;;;-2.95;68.625;94681.97;;;;
2021/04/06 05:29:17;;;;;;;4.15;2.55;;;;;;;-2.95;68.625;94681.97;;;;
2021/04/06 05:30:18;;;;;;;4.15;2.55;;;;;;;-2.95;68.625;94681.97;;;;
2021/04/06 05:31:19;;;;;;;5.3;2.6;;;;;;;-2.85;68.69336;94674.28;;;;
2021/04/06 05:32:20;;;;;;;5.3;2.6;;;;;;;-2.85;68.69336;94674.28;;;;
2021/04/06 05:33:21;;;;;;;5.3;2.6;;;;;;;-2.85;68.69336;94674.28;;;;
2021/04/06 05:34:21;;;;;;;5.3;2.6;;;;;;;-2.85;68.69336;94674.28;;;;
2021/04/06 05:35:22;;;;;;;5.3;2.6;;;;;;;-2.85;68.69336;94674.28;;;;
2021/04/06 05:36:22;;;;;;;5.3;2.6;;;;;;;-2.85;68.69336;94674.28;;;;
2021/04/06 05:37:23;;;;;;;5.3;2.6;;;;;;;-2.85;68.69336;94674.28;;;;
2021/04/06 05:38:23;;;;;;;5.3;2.6;;;;;;;-2.85;68.69336;94674.28;;;;
2021/04/06 05:39:24;;;;;;;5.3;2.6;;;;;;;-2.85;68.69336;94674.28;;;;
2021/04/06 05:40:24;;;;;;;5.3;2.6;;;;;;;-2.85;68.69336;94674.28;;;;
2021/04/06 05:41:25;;;;;;;4.25;2.5;;;;;;;-2.69;68.70898;94671.1;;;;
2021/04/06 05:42:26;;;;;;;4.25;2.5;;;;;;;-2.69;68.70898;94671.1;;;;
2021/04/06 05:43:27;;;;;;;4.25;2.5;;;;;;;-2.69;68.70898;94671.1;;;;
2021/04/06 05:44:28;;;;;;;4.25;2.5;;;;;;;-2.69;68.70898;94671.1;;;;
2021/04/06 05:45:29;;;;;;;4.25;2.5;;;;;;;-2.69;68.70898;94671.1;;;;
2021/04/06 05:46:32;;;;;;;4.25;2.5;;;;;;;-2.69;68.70898;94671.1;;;;
2021/04/06 05:47:35;;;;;;;4.25;2.5;;;;;;;-2.69;68.70898;94671.1;;;;
2021/04/06 05:48:39;;;;;;;4.25;2.5;;;;;;;-2.69;68.70898;94671.1;;;;
2021/04/06 05:49:41;;;;;;;4.25;2.5;;;;;;;-2.69;68.70898;94671.1;;;;
2021/04/06 05:50:42;;;;;;;4.25;2.5;;;;;;;-2.69;68.70898;94671.1;;;;
2021/04/06 05:51:45;;;;;;;4.25;2.5;;;;;;;-2.69;68.70898;94671.1;;;;
2021/04/06 05:52:45;;;;;;;4.7;2.3;;;;;;;-2.42;68.38867;94676.01;;;;
2021/04/06 05:53:47;;;;;;;4.7;2.3;;;;;;;-2.42;68.38867;94676.01;;;;
2021/04/06 05:54:47;;;;;;;4.7;2.3;;;;;;;-2.42;68.38867;94676.01;;;;
2021/04/06 05:55:48;;;;;;;4.7;2.3;;;;;;;-2.42;68.38867;94676.01;;;;